Time;durP1;ratioP1;P1;durP2;ratioP2;P2;SDS_P1;SDS_P2;PMS_P1;PMS_P2;Temp;Humidity;BMP_temperature;BMP_pressure;BME280_temperature;BME280_humidity;BME280_pressure;Samples;Min_cycle;Max_cycle;Signal;HPM_P1;HPM_P2
2022/03/26 00:03:20;;;;;;;37.28;23.98;;;;;;;6.95;59.20;101780.16;5752083;22;20061;-78
2022/03/26 00:05:48;;;;;;;37.83;25.02;;;;;;;6.90;58.81;101769.84;5014085;28;20061;-80
2022/03/26 00:08:15;;;;;;;37.42;24.88;;;;;;;6.81;58.80;101768.63;5015765;28;20057;-80
2022/03/26 00:10:42;;;;;;;43.50;26.75;;;;;;;6.76;59.29;101768.56;5012781;28;20054;-81
2022/03/26 00:13:10;;;;;;;49.42;26.17;;;;;;;6.73;59.32;101771.84;5015764;28;20054;-81
2022/03/26 00:15:37;;;;;;;38.92;25.92;;;;;;;6.66;59.68;101769.25;5012626;28;20493;-80
2022/03/26 00:18:05;;;;;;;39.60;24.73;;;;;;;6.63;59.94;101767.00;5014430;28;20054;-80
2022/03/26 00:20:34;;;;;;;38.65;25.85;;;;;;;6.56;60.20;101768.28;5015298;28;20050;-80
2022/03/26 00:23:01;;;;;;;36.50;24.25;;;;;;;6.53;59.77;101763.25;5011124;28;20053;-79
2022/03/26 00:25:29;;;;;;;35.53;23.73;;;;;;;6.51;59.67;101763.53;5015315;28;20049;-80
2022/03/26 00:27:56;;;;;;;38.10;25.08;;;;;;;6.49;59.54;101760.19;5007959;28;20058;-80
2022/03/26 00:30:23;;;;;;;36.05;24.83;;;;;;;6.46;60.22;101763.44;5006649;28;20057;-80
2022/03/26 00:32:51;;;;;;;35.50;24.08;;;;;;;6.39;60.09;101769.16;5011547;28;20057;-81
2022/03/26 00:35:18;;;;;;;41.28;27.90;;;;;;;6.37;59.98;101765.81;5010153;28;20054;-80
2022/03/26 00:37:47;;;;;;;37.72;24.73;;;;;;;6.32;59.75;101751.91;5013790;28;20381;-80
2022/03/26 00:40:14;;;;;;;39.70;24.60;;;;;;;6.27;60.51;101749.88;4996321;28;20054;-80
2022/03/26 00:42:41;;;;;;;38.15;24.30;;;;;;;6.21;60.33;101750.91;5000758;28;20049;-80
2022/03/26 00:45:10;;;;;;;39.63;26.70;;;;;;;6.16;60.69;101755.53;5014509;28;20045;-80
2022/03/26 00:47:37;;;;;;;38.13;25.65;;;;;;;6.12;60.62;101748.84;5013173;28;20049;-80
2022/03/26 00:50:06;;;;;;;37.90;25.20;;;;;;;6.08;61.01;101752.09;4995365;28;20069;-80
2022/03/26 00:52:33;;;;;;;37.42;25.65;;;;;;;6.07;60.99;101755.97;4995536;28;20050;-80
2022/03/26 00:55:02;;;;;;;37.50;24.13;;;;;;;6.05;60.89;101758.13;4999752;28;20514;-80
2022/03/26 00:57:30;;;;;;;39.28;25.25;;;;;;;6.04;60.90;101750.09;5015669;28;20053;-80
2022/03/26 00:59:58;;;;;;;37.47;25.10;;;;;;;6.02;60.58;101749.50;5014733;28;20057;-80
2022/03/26 01:02:25;;;;;;;41.63;25.35;;;;;;;5.98;61.14;101751.09;5013193;28;20478;-80
2022/03/26 01:04:54;;;;;;;37.20;25.02;;;;;;;5.99;60.93;101747.25;5005291;28;20054;-79
2022/03/26 01:07:21;;;;;;;41.95;25.63;;;;;;;5.95;61.29;101740.56;5013641;28;20053;-79
2022/03/26 01:09:48;;;;;;;39.35;26.23;;;;;;;5.94;61.37;101747.94;5012664;28;20042;-79
2022/03/26 01:12:17;;;;;;;37.28;23.95;;;;;;;5.86;61.44;101745.63;5014024;28;20053;-79
2022/03/26 01:14:45;;;;;;;42.10;25.23;;;;;;;5.84;61.11;101745.06;5013985;28;20065;-79
2022/03/26 01:17:12;;;;;;;41.67;27.75;;;;;;;5.83;61.44;101743.34;5012143;28;20468;-81
2022/03/26 01:19:39;;;;;;;41.95;25.98;;;;;;;5.80;61.74;101741.09;5013879;28;20052;-79
2022/03/26 01:22:07;;;;;;;42.00;27.02;;;;;;;5.76;61.76;101745.47;5013284;28;20054;-79
2022/03/26 01:24:34;;;;;;;43.08;25.40;;;;;;;5.75;62.01;101741.84;5004388;28;20538;-80
2022/03/26 01:27:02;;;;;;;43.78;26.48;;;;;;;5.73;61.86;101743.19;4996089;28;20058;-80
2022/03/26 01:29:31;;;;;;;39.40;26.30;;;;;;;5.74;61.84;101739.34;4997307;28;20097;-79
2022/03/26 01:31:58;;;;;;;43.55;26.80;;;;;;;5.75;62.09;101754.81;5003117;28;20433;-79
2022/03/26 01:34:27;;;;;;;44.95;26.83;;;;;;;5.72;62.02;101758.94;5017862;28;20069;-79
2022/03/26 01:36:56;;;;;;;42.00;26.33;;;;;;;5.72;62.42;101752.56;5019531;28;20057;-80
2022/03/26 01:39:24;;;;;;;41.20;26.83;;;;;;;5.68;62.41;101758.59;5019343;28;20058;-80
2022/03/26 01:41:51;;;;;;;44.58;26.60;;;;;;;5.65;62.41;101758.28;5019002;28;20045;-79
2022/03/26 01:44:19;;;;;;;39.92;26.55;;;;;;;5.66;62.29;101771.81;5017696;28;20054;-80
2022/03/26 01:46:49;;;;;;;41.22;26.13;;;;;;;5.66;62.50;101765.47;5018187;28;20054;-79
2022/03/26 01:49:17;;;;;;;41.78;26.77;;;;;;;5.64;62.50;101771.22;5018088;28;20057;-79
2022/03/26 01:51:45;;;;;;;42.97;27.95;;;;;;;5.60;62.38;101766.47;5018205;28;20050;-79
2022/03/26 01:54:14;;;;;;;45.47;29.20;;;;;;;5.59;62.40;101768.41;5018188;28;20141;-80
2022/03/26 01:56:42;;;;;;;42.17;25.47;;;;;;;5.56;62.71;101768.03;5018384;28;20065;-80
2022/03/26 01:59:10;;;;;;;39.08;26.23;;;;;;;5.56;62.85;101768.03;4999666;28;20536;-80
2022/03/26 02:01:38;;;;;;;43.13;25.77;;;;;;;5.55;62.66;101763.63;4997282;28;20054;-79
2022/03/26 02:04:08;;;;;;;41.13;26.02;;;;;;;5.54;62.94;101761.94;5015102;28;20046;-79
2022/03/26 02:06:39;;;;;;;43.22;27.35;;;;;;;5.51;62.61;101768.78;5017180;28;20084;-79
2022/03/26 02:09:08;;;;;;;42.22;26.63;;;;;;;5.49;62.66;101766.28;5019187;28;20049;-79
2022/03/26 02:11:36;;;;;;;42.60;25.37;;;;;;;5.41;62.71;101763.06;5004663;28;20486;-79
2022/03/26 02:14:04;;;;;;;41.95;26.33;;;;;;;5.37;62.93;101765.50;4998575;28;20482;-79
2022/03/26 02:16:33;;;;;;;44.38;26.10;;;;;;;5.37;63.01;101767.41;4997854;28;20061;-79
2022/03/26 02:19:00;;;;;;;40.83;25.70;;;;;;;5.38;62.88;101760.81;5016991;28;20054;-80
2022/03/26 02:21:30;;;;;;;38.47;23.80;;;;;;;5.38;62.80;101760.81;5017403;28;20378;-80
2022/03/26 02:23:57;;;;;;;43.28;24.98;;;;;;;5.34;63.23;101759.66;5011593;28;20057;-80
2022/03/26 02:26:26;;;;;;;45.25;27.27;;;;;;;5.34;63.14;101762.41;5003320;28;20057;-80
2022/03/26 02:28:57;;;;;;;41.90;25.92;;;;;;;5.31;63.13;101762.88;5018169;28;20058;-81
2022/03/26 02:31:26;;;;;;;41.70;25.17;;;;;;;5.32;63.08;101759.06;5017788;28;20058;-80
2022/03/26 02:33:54;;;;;;;44.35;27.88;;;;;;;5.26;62.77;101758.09;5017287;28;20054;-80
2022/03/26 02:36:22;;;;;;;41.40;27.90;;;;;;;5.21;63.23;101753.31;5016970;28;20053;-80
2022/03/26 02:38:50;;;;;;;43.00;27.08;;;;;;;5.22;63.00;101756.91;5017594;28;20061;-80
2022/03/26 02:41:18;;;;;;;39.17;25.58;;;;;;;5.21;63.34;101753.31;5016590;28;20466;-80
2022/03/26 02:43:45;;;;;;;37.95;25.63;;;;;;;5.23;62.97;101755.84;5010688;28;20474;-80
2022/03/26 02:46:13;;;;;;;37.30;23.75;;;;;;;5.18;62.71;101753.81;4998057;28;20057;-80
2022/03/26 02:48:42;;;;;;;40.40;25.92;;;;;;;5.17;62.46;101767.88;4998794;28;20065;-80
2022/03/26 02:51:11;;;;;;;42.45;26.27;;;;;;;5.13;63.28;101761.19;5015644;28;20060;-80
2022/03/26 02:53:39;;;;;;;41.13;24.33;;;;;;;5.08;62.97;101764.66;5016436;28;20932;-79
2022/03/26 02:56:08;;;;;;;40.45;26.45;;;;;;;5.06;63.50;101764.06;5016625;28;20414;-81
2022/03/26 02:58:35;;;;;;;43.93;26.37;;;;;;;5.03;63.61;101761.81;5016757;28;20406;-80
2022/03/26 03:01:02;;;;;;;42.92;26.45;;;;;;;5.02;63.50;101757.38;5017051;28;20057;-80
2022/03/26 03:03:30;;;;;;;38.47;25.05;;;;;;;5.00;63.30;101771.41;5017034;28;20524;-80
2022/03/26 03:05:58;;;;;;;40.42;26.13;;;;;;;4.99;63.27;101766.13;5016847;28;20046;-80
2022/03/26 03:08:25;;;;;;;44.00;27.35;;;;;;;4.98;63.19;101764.47;5016812;28;20402;-80
2022/03/26 03:10:53;;;;;;;43.25;27.65;;;;;;;4.96;63.71;101759.19;5016269;28;20057;-79
2022/03/26 03:13:22;;;;;;;42.00;26.55;;;;;;;4.97;63.42;101760.03;5016284;28;20050;-79
2022/03/26 03:15:50;;;;;;;40.45;24.85;;;;;;;4.97;63.48;101763.59;5016501;28;20054;-79
2022/03/26 03:18:18;;;;;;;40.80;25.42;;;;;;;4.95;63.67;101763.00;5015574;28;20129;-78
2022/03/26 03:20:46;;;;;;;40.38;25.95;;;;;;;4.92;63.61;101759.94;5016076;28;20050;-79
2022/03/26 03:23:13;;;;;;;45.17;26.20;;;;;;;4.90;63.01;101762.94;5015927;28;20061;-80
2022/03/26 03:25:41;;;;;;;38.92;24.05;;;;;;;4.87;63.42;101766.16;5016448;28;20049;-80
2022/03/26 03:28:08;;;;;;;45.33;26.27;;;;;;;4.84;63.69;101767.50;5016695;28;20398;-79
2022/03/26 03:30:37;;;;;;;40.97;26.45;;;;;;;4.83;63.38;101763.06;5015729;28;20049;-80
2022/03/26 03:33:05;;;;;;;41.57;24.37;;;;;;;4.83;63.76;101764.97;5016683;28;20054;-80
2022/03/26 03:35:32;;;;;;;43.05;27.23;;;;;;;4.78;63.40;101764.88;5016553;28;20046;-79
2022/03/26 03:38:00;;;;;;;41.80;24.08;;;;;;;4.76;63.99;101767.88;5001182;28;20051;-79
2022/03/26 03:40:27;;;;;;;41.08;25.08;;;;;;;4.72;64.48;101758.41;4996416;28;20410;-79
2022/03/26 03:42:55;;;;;;;41.60;25.95;;;;;;;4.71;64.02;101764.19;4996525;28;20050;-79
2022/03/26 03:45:22;;;;;;;41.78;26.80;;;;;;;4.71;64.27;101764.19;4995842;28;20069;-80
2022/03/26 03:47:51;;;;;;;42.33;25.45;;;;;;;4.71;64.02;101762.25;4996140;28;20054;-79
2022/03/26 03:50:19;;;;;;;41.78;26.40;;;;;;;4.70;64.22;101763.31;5003805;28;20481;-79
2022/03/26 03:52:46;;;;;;;44.72;27.35;;;;;;;4.67;64.20;101763.81;5014632;28;20065;-79
2022/03/26 03:55:15;;;;;;;45.20;27.67;;;;;;;4.65;64.38;101766.00;5015633;28;20444;-79
2022/03/26 03:57:43;;;;;;;45.22;28.05;;;;;;;4.57;64.67;101769.13;5015605;28;20096;-79
2022/03/26 04:00:12;;;;;;;43.53;28.27;;;;;;;4.55;64.52;101769.34;5015749;28;20053;-79
2022/03/26 04:02:40;;;;;;;41.10;26.17;;;;;;;4.54;64.93;101764.09;5013690;28;20049;-78
2022/03/26 04:05:10;;;;;;;43.70;26.70;;;;;;;4.53;64.57;101760.47;4995667;28;20065;-79
2022/03/26 04:07:38;;;;;;;43.05;26.70;;;;;;;4.55;64.31;101765.75;4995504;28;20491;-79
2022/03/26 04:10:07;;;;;;;45.13;28.20;;;;;;;4.53;64.43;101754.97;5004401;28;20054;-80
2022/03/26 04:12:36;;;;;;;39.75;24.85;;;;;;;4.49;64.56;101764.81;5015564;28;20057;-80
2022/03/26 04:15:04;;;;;;;42.00;27.13;;;;;;;4.47;64.19;101769.72;5015784;28;20054;-80
2022/03/26 04:17:32;;;;;;;41.67;25.50;;;;;;;4.47;64.44;101770.59;5015078;28;20112;-80
2022/03/26 04:20:00;;;;;;;40.58;26.27;;;;;;;4.43;64.50;101769.38;5015255;28;20041;-80
2022/03/26 04:22:29;;;;;;;50.67;29.60;;;;;;;4.42;64.11;101775.13;5014800;28;20050;-80
2022/03/26 04:24:56;;;;;;;44.53;26.33;;;;;;;4.39;64.37;101772.84;5013847;28;20061;-80
2022/03/26 04:27:24;;;;;;;43.25;27.23;;;;;;;4.37;64.60;101770.34;5014841;28;20068;-80
2022/03/26 04:29:51;;;;;;;48.72;27.27;;;;;;;4.34;64.52;101761.72;5021281;28;20057;-80
2022/03/26 04:32:19;;;;;;;40.72;25.13;;;;;;;4.32;64.15;101772.13;5014845;28;20065;-82
2022/03/26 04:34:46;;;;;;;43.70;25.70;;;;;;;4.34;64.58;101770.81;5014508;28;20406;-81
2022/03/26 04:37:13;;;;;;;43.95;28.13;;;;;;;4.32;64.40;101772.13;5014303;28;20046;-79
2022/03/26 04:39:42;;;;;;;41.40;25.90;;;;;;;4.29;64.52;101772.63;5014841;28;20046;-80
2022/03/26 04:42:10;;;;;;;48.70;27.20;;;;;;;4.23;64.34;101774.44;5014526;28;20050;-80
2022/03/26 04:44:38;;;;;;;44.42;27.40;;;;;;;4.24;64.49;101776.94;5014924;28;20060;-79
2022/03/26 04:47:06;;;;;;;46.60;27.85;;;;;;;4.23;64.95;101769.75;5014942;28;20052;-79
2022/03/26 04:49:33;;;;;;;48.47;29.35;;;;;;;4.20;64.82;101777.66;5014425;28;20046;-79
2022/03/26 04:52:01;;;;;;;48.72;31.08;;;;;;;4.17;65.31;101776.22;5014458;28;20058;-80
2022/03/26 04:54:28;;;;;;;46.80;29.23;;;;;;;4.15;65.37;101783.06;5014953;28;20080;-80
2022/03/26 04:56:57;;;;;;;48.88;29.60;;;;;;;4.17;65.81;101786.41;4999977;28;20065;-79
2022/03/26 04:59:24;;;;;;;47.75;29.20;;;;;;;4.18;65.22;101779.81;4995250;28;20356;-78
2022/03/26 05:01:52;;;;;;;53.33;31.05;;;;;;;4.19;65.42;101778.75;4994157;28;20380;-79
2022/03/26 05:04:19;;;;;;;48.90;29.33;;;;;;;4.16;65.87;101779.19;4993538;28;20058;-79
2022/03/26 05:06:46;;;;;;;44.00;27.15;;;;;;;4.15;65.75;101783.06;4994330;28;20062;-81
2022/03/26 05:09:14;;;;;;;44.40;28.02;;;;;;;4.14;65.54;101781.38;4995025;28;20073;-80
2022/03/26 05:11:42;;;;;;;43.47;27.50;;;;;;;4.14;65.45;101782.22;4994469;28;20061;-80
2022/03/26 05:14:13;;;;;;;46.58;28.45;;;;;;;4.14;65.13;101786.91;4993162;28;20054;-80
2022/03/26 05:16:40;;;;;;;44.20;28.50;;;;;;;4.14;64.76;101789.66;5006628;28;20049;-80
2022/03/26 05:19:08;;;;;;;40.90;26.77;;;;;;;4.11;65.27;101792.88;5014423;28;20057;-79
2022/03/26 05:21:37;;;;;;;42.92;27.38;;;;;;;4.12;65.61;101794.56;5014034;28;20498;-79
2022/03/26 05:24:05;;;;;;;;;;;;;;;4.09;65.96;101793.09;4995089;28;20054;-79
2022/03/26 05:26:32;;;;;;;44.95;26.42;;;;;;;4.09;65.44;101800.56;4994652;28;19948;-81
2022/03/26 05:29:00;;;;;;;44.13;26.73;;;;;;;4.11;65.84;101803.91;4994704;28;20061;-80
2022/03/26 05:31:30;;;;;;;49.42;29.67;;;;;;;4.09;65.70;101812.41;4994523;28;20065;-80
2022/03/26 05:33:58;;;;;;;45.80;28.85;;;;;;;4.18;65.04;101810.13;4998709;28;20046;-81
2022/03/26 05:36:26;;;;;;;49.92;29.52;;;;;;;4.17;65.39;101814.81;5012044;28;20054;-80
2022/03/26 05:38:53;;;;;;;45.28;27.52;;;;;;;4.17;65.36;101820.34;5013984;28;20071;-80
2022/03/26 05:41:21;;;;;;;47.28;29.48;;;;;;;4.21;65.35;101815.19;5013881;28;20421;-80
2022/03/26 05:43:49;;;;;;;47.17;29.15;;;;;;;4.23;65.05;101822.13;5014280;28;20950;-80
2022/03/26 05:46:17;;;;;;;52.10;30.63;;;;;;;4.28;65.26;101824.19;5013534;28;20057;-80
2022/03/26 05:48:46;;;;;;;48.33;29.23;;;;;;;4.32;65.48;101819.88;5013876;28;20502;-80
2022/03/26 05:51:13;;;;;;;47.22;28.42;;;;;;;4.38;65.11;101827.19;5012694;28;20054;-80
2022/03/26 05:53:41;;;;;;;47.97;28.42;;;;;;;4.39;65.23;101820.59;4994772;28;20403;-80
2022/03/26 05:56:08;;;;;;;42.90;27.90;;;;;;;4.42;64.80;101831.13;4994324;28;20046;-80
2022/03/26 05:58:36;;;;;;;47.38;28.48;;;;;;;4.48;63.95;101827.44;5000551;28;20061;-80
2022/03/26 06:01:03;;;;;;;36.92;24.00;;;;;;;4.54;64.03;101839.44;5013594;28;20061;-80
2022/03/26 06:03:30;;;;;;;42.75;27.38;;;;;;;4.59;64.03;101838.69;5013503;28;20057;-80
2022/03/26 06:05:59;;;;;;;43.80;26.45;;;;;;;4.64;63.95;101836.91;5014063;28;20382;-80
2022/03/26 06:08:27;;;;;;;41.55;26.52;;;;;;;4.72;63.98;101843.97;5013267;28;20056;-79
2022/03/26 06:10:54;;;;;;;43.60;27.30;;;;;;;4.81;63.92;101841.69;5013543;28;20046;-79
2022/03/26 06:13:21;;;;;;;46.10;27.70;;;;;;;4.93;63.71;101845.25;4994749;28;20057;-80
2022/03/26 06:15:48;;;;;;;37.90;23.25;;;;;;;5.06;64.92;101850.53;4997391;28;20069;-80
2022/03/26 06:18:16;;;;;;;35.80;22.95;;;;;;;5.29;64.57;101854.28;4999029;28;20057;-80
2022/03/26 06:20:43;;;;;;;38.05;23.75;;;;;;;5.51;63.89;101856.41;4998274;28;20055;-80
2022/03/26 06:23:12;;;;;;;34.75;24.25;;;;;;;5.70;62.91;101857.88;5017610;28;20054;-80
2022/03/26 06:25:40;;;;;;;41.88;27.25;;;;;;;5.87;61.72;101855.13;5017464;28;20077;-80
2022/03/26 06:28:07;;;;;;;40.88;25.73;;;;;;;5.98;60.64;101861.72;5018223;28;20050;-79
2022/03/26 06:30:34;;;;;;;40.17;27.80;;;;;;;6.06;60.13;101861.31;5011309;28;20053;-80
2022/03/26 06:33:02;;;;;;;38.92;24.48;;;;;;;6.23;60.32;101859.38;4998284;28;20057;-80
2022/03/26 06:35:30;;;;;;;39.30;25.83;;;;;;;6.36;60.02;101852.66;5010050;28;20556;-80
2022/03/26 06:37:57;;;;;;;42.90;25.80;;;;;;;6.42;59.40;101857.19;5017680;28;20065;-80
2022/03/26 06:40:26;;;;;;;41.25;25.42;;;;;;;6.48;59.19;101855.34;5016658;28;20057;-80
2022/03/26 06:42:53;;;;;;;41.50;25.80;;;;;;;6.61;59.52;101865.25;5005458;28;20062;-80
2022/03/26 06:45:21;;;;;;;44.38;27.50;;;;;;;6.73;59.61;101863.22;5014462;28;20055;-80
2022/03/26 06:47:48;;;;;;;40.97;25.33;;;;;;;6.85;59.91;101857.59;4996605;28;20364;-80
2022/03/26 06:50:15;;;;;;;44.38;27.05;;;;;;;6.93;59.65;101856.28;4997685;28;20514;-80
2022/03/26 06:52:42;;;;;;;43.50;29.80;;;;;;;7.07;59.77;101852.06;5015303;28;20050;-80
2022/03/26 06:55:10;;;;;;;41.72;27.20;;;;;;;7.26;59.47;101858.09;5016266;28;20068;-80
2022/03/26 06:57:41;;;;;;;40.05;26.48;;;;;;;7.42;59.27;101854.44;5016240;28;20050;-79
2022/03/26 07:00:11;;;;;;;43.05;28.40;;;;;;;7.63;58.52;101858.28;5012538;28;20516;-80
2022/03/26 07:02:38;;;;;;;;;;;;;;;7.76;57.20;101859.78;5016206;28;20050;-79
2022/03/26 07:05:07;;;;;;;38.38;26.00;;;;;;;7.98;57.46;101856.13;4997425;28;19928;-79
2022/03/26 07:07:34;;;;;;;41.38;27.52;;;;;;;8.28;56.18;101866.66;4999203;28;20047;-80
2022/03/26 07:10:02;;;;;;;41.80;27.23;;;;;;;8.66;55.72;101857.25;5017442;28;20061;-79
2022/03/26 07:12:29;;;;;;;36.17;25.98;;;;;;;9.60;53.25;101856.63;5016796;28;20478;-79
2022/03/26 07:14:58;;;;;;;38.17;24.77;;;;;;;10.56;51.04;101850.31;5016258;28;20050;-79
2022/03/26 07:17:26;;;;;;;32.97;23.23;;;;;;;11.48;48.93;101854.75;5015599;28;20057;-80
2022/03/26 07:19:53;;;;;;;38.70;27.30;;;;;;;12.54;46.29;101845.94;5011468;28;20050;-79
2022/03/26 07:22:21;;;;;;;36.10;26.45;;;;;;;13.65;44.04;101849.72;5015177;28;20050;-80
2022/03/26 07:24:48;;;;;;;37.92;26.50;;;;;;;14.62;41.76;101838.94;5015164;28;20054;-80
2022/03/26 07:27:16;;;;;;;37.33;26.30;;;;;;;15.74;39.55;101830.19;5014868;28;20053;-80
2022/03/26 07:29:48;;;;;;;35.58;25.73;;;;;;;16.72;37.58;101827.75;5014982;28;20054;-80
2022/03/26 07:32:17;;;;;;;33.72;26.30;;;;;;;17.56;35.64;101828.75;5011064;28;20057;-80
2022/03/26 07:37:25;;;;;;;33.78;26.60;;;;;;;19.28;32.60;101825.16;5020004;28;20485;-81
2022/03/26 07:39:53;;;;;;;33.13;27.13;;;;;;;19.87;31.29;101829.94;5015564;28;20054;-80
2022/03/26 07:42:20;;;;;;;33.78;26.42;;;;;;;20.73;30.01;101829.47;5006910;28;20061;-80
2022/03/26 07:44:47;;;;;;;32.08;27.50;;;;;;;21.39;29.13;101831.25;5009555;28;20414;-80
2022/03/26 07:47:15;;;;;;;30.52;25.52;;;;;;;22.03;28.29;101827.63;4997377;28;20479;-79
2022/03/26 07:49:44;;;;;;;30.80;25.63;;;;;;;22.69;26.93;101833.94;5001439;28;20072;-80
2022/03/26 07:52:13;;;;;;;31.15;26.40;;;;;;;23.47;26.16;101829.44;5003426;28;20049;-80
2022/03/26 07:54:40;;;;;;;30.08;26.52;;;;;;;23.94;25.31;101829.72;5015340;28;20065;-80
2022/03/26 07:57:08;;;;;;;31.75;26.45;;;;;;;24.57;23.92;101820.88;5014785;28;20049;-80
2022/03/26 07:59:35;;;;;;;28.55;24.85;;;;;;;25.08;23.74;101828.28;5014232;28;20054;-81
2022/03/26 08:02:02;;;;;;;33.45;27.70;;;;;;;25.52;23.25;101833.50;5003934;28;20425;-80
2022/03/26 08:04:29;;;;;;;34.55;27.88;;;;;;;26.00;22.49;101827.28;5017122;28;20133;-82
2022/03/26 08:06:58;;;;;;;33.35;27.33;;;;;;;26.42;22.24;101823.28;5013808;28;20050;-82
2022/03/26 08:09:26;;;;;;;30.17;26.02;;;;;;;26.93;21.45;101826.28;5015324;28;20513;-80
2022/03/26 08:11:53;;;;;;;29.83;26.70;;;;;;;26.83;21.93;101827.00;5008138;28;20053;-80
2022/03/26 08:14:20;;;;;;;28.48;25.48;;;;;;;27.40;21.01;101828.72;5021536;28;20053;-80
2022/03/26 08:16:48;;;;;;;29.35;24.95;;;;;;;27.86;20.24;101834.75;5018223;28;20045;-80
2022/03/26 08:19:16;;;;;;;30.23;27.23;;;;;;;28.47;19.92;101837.03;5019684;28;20505;-80
2022/03/26 08:21:43;;;;;;;30.02;26.77;;;;;;;28.93;19.43;101830.59;5016216;28;20057;-80
2022/03/26 08:24:12;;;;;;;29.15;26.13;;;;;;;29.46;18.16;101829.81;5016485;28;20056;-80
2022/03/26 08:26:40;;;;;;;29.55;24.98;;;;;;;30.06;17.67;101830.06;5015362;28;20053;-80
2022/03/26 08:29:07;;;;;;;27.60;24.88;;;;;;;30.38;17.53;101832.00;5010052;28;20057;-80
2022/03/26 08:31:35;;;;;;;28.10;25.40;;;;;;;30.71;17.22;101822.72;5009227;28;20077;-79
2022/03/26 08:34:02;;;;;;;28.15;25.33;;;;;;;31.01;17.04;101818.41;5021725;28;20458;-80
2022/03/26 08:36:31;;;;;;;30.27;26.60;;;;;;;31.03;16.79;101827.44;5022308;28;20054;-80
2022/03/26 08:39:01;;;;;;;30.70;27.42;;;;;;;31.32;16.64;101825.13;5015759;28;20062;-80
2022/03/26 08:41:30;;;;;;;29.35;26.38;;;;;;;32.08;16.23;101824.34;5016178;28;20478;-80
2022/03/26 08:44:06;;;;;;;31.23;26.33;;;;;;;32.63;16.21;101828.94;5007044;28;20051;-79
2022/03/26 08:46:34;;;;;;;27.60;24.67;;;;;;;32.99;15.38;101834.19;5011722;28;20050;-79
2022/03/26 08:49:01;;;;;;;26.47;23.77;;;;;;;33.22;15.14;101827.63;5017986;28;20054;-80
2022/03/26 08:51:29;;;;;;;26.77;24.15;;;;;;;33.57;14.49;101826.13;5017238;28;20442;-80
2022/03/26 08:53:58;;;;;;;30.25;27.25;;;;;;;33.93;14.02;101828.31;5018074;28;20045;-80
2022/03/26 08:56:26;;;;;;;27.27;24.38;;;;;;;34.36;14.42;101839.00;5014371;28;20398;-80
2022/03/26 08:58:55;;;;;;;28.15;25.25;;;;;;;34.32;13.76;101832.50;5015139;28;20056;-81
2022/03/26 09:01:22;;;;;;;26.45;23.75;;;;;;;34.54;13.92;101834.88;5012213;28;20057;-80
2022/03/26 09:03:50;;;;;;;27.58;24.48;;;;;;;34.99;14.01;101830.56;5015456;28;20053;-80
2022/03/26 09:06:18;;;;;;;28.52;25.60;;;;;;;35.13;13.72;101838.84;5014592;28;20383;-80
2022/03/26 09:08:46;;;;;;;;;;;;;;;35.01;13.87;101843.31;5014492;28;20057;-79
2022/03/26 09:11:14;;;;;;;;;;;;;;;35.19;13.38;101842.84;5015087;28;19940;-80
2022/03/26 09:13:41;;;;;;;27.00;24.23;;;;;;;35.95;14.03;101842.47;5016805;28;19932;-79
2022/03/26 09:16:10;;;;;;;28.00;25.20;;;;;;;36.00;13.04;101843.16;5014210;28;20050;-80
2022/03/26 09:18:37;;;;;;;27.08;24.38;;;;;;;36.63;12.79;101842.50;5013497;28;20402;-80
2022/03/26 09:21:05;;;;;;;28.70;25.90;;;;;;;36.90;12.73;101844.13;5013937;28;20053;-80
2022/03/26 09:23:33;;;;;;;28.33;25.42;;;;;;;37.22;11.89;101843.06;5015145;28;20489;-80
2022/03/26 09:26:04;;;;;;;29.53;26.63;;;;;;;37.68;11.90;101842.72;5010167;28;20049;-80
2022/03/26 09:28:31;;;;;;;27.80;23.92;;;;;;;38.13;11.95;101838.53;5014372;28;20065;-80
2022/03/26 09:30:59;;;;;;;28.23;23.92;;;;;;;38.55;10.76;101838.13;5013283;28;20493;-81
2022/03/26 09:33:27;;;;;;;27.67;24.73;;;;;;;38.80;10.80;101845.84;5014966;28;20054;-81
2022/03/26 09:35:54;;;;;;;27.73;23.65;;;;;;;39.09;11.01;101844.69;5011964;28;20485;-81
2022/03/26 09:38:22;;;;;;;25.45;22.58;;;;;;;39.24;10.41;101844.88;5014852;28;20062;-79
2022/03/26 09:40:51;;;;;;;26.35;23.27;;;;;;;39.35;10.61;101846.03;5015901;28;20042;-80
2022/03/26 09:43:19;;;;;;;24.50;22.13;;;;;;;39.19;11.21;101846.31;5003698;28;20061;-81
2022/03/26 09:45:47;;;;;;;26.90;24.17;;;;;;;39.21;11.11;101837.06;5010260;28;20046;-80
2022/03/26 09:48:17;;;;;;;24.77;22.30;;;;;;;39.72;10.86;101845.25;5005668;28;20407;-81
2022/03/26 09:50:47;;;;;;;27.00;24.40;;;;;;;39.50;10.94;101840.41;5005527;28;20053;-81
2022/03/26 09:53:14;;;;;;;26.20;23.33;;;;;;;39.94;11.38;101840.09;5000419;28;20046;-82
2022/03/26 09:55:46;;;;;;;25.95;22.95;;;;;;;40.47;10.35;101838.03;5011737;28;20053;-81
2022/03/26 09:58:14;;;;;;;24.77;22.17;;;;;;;40.08;11.09;101840.69;5014685;28;20050;-82
2022/03/26 10:00:41;;;;;;;24.77;22.27;;;;;;;41.04;10.34;101834.38;5015434;28;20050;-82
2022/03/26 10:03:08;;;;;;;25.15;22.83;;;;;;;40.50;10.30;101834.91;5015825;28;20060;-82
2022/03/26 10:05:36;;;;;;;25.20;22.55;;;;;;;40.97;10.35;101838.44;5010048;28;20049;-82
2022/03/26 10:08:22;;;;;;;;;;;;;;;40.34;10.47;101841.13;5015397;28;20054;-82
2022/03/26 10:10:51;;;;;;;25.20;22.10;;;;;;;40.71;10.55;101830.13;5011089;28;19929;-81
2022/03/26 10:13:38;;;;;;;24.60;21.95;;;;;;;41.48;10.30;101836.69;5016454;28;20061;-81
2022/03/26 10:16:07;;;;;;;24.60;22.17;;;;;;;40.83;10.48;101830.44;5009702;28;20062;-82
2022/03/26 10:18:36;;;;;;;23.23;20.17;;;;;;;41.43;9.77;101835.22;5017522;28;20490;-82
2022/03/26 10:21:07;;;;;;;22.00;19.80;;;;;;;41.93;9.67;101828.81;5014044;28;20430;-82
2022/03/26 10:23:36;;;;;;;21.08;18.95;;;;;;;42.16;9.72;101839.63;5010218;28;20046;-81
2022/03/26 10:26:09;;;;;;;20.33;18.42;;;;;;;42.32;9.33;101834.59;5016133;28;20399;-81
2022/03/26 10:28:37;;;;;;;22.35;18.70;;;;;;;42.30;9.61;101829.25;5014902;28;20054;-82
2022/03/26 10:34:08;;;;;;;14.98;12.55;;;;;;;42.19;8.66;101820.28;5010776;28;20054;-80
2022/03/26 10:36:41;;;;;;;12.90;11.63;;;;;;;42.98;9.00;101815.69;5013124;28;20050;-82
2022/03/26 10:39:16;;;;;;;16.08;14.60;;;;;;;42.99;8.84;101817.31;5019802;28;20053;-85
2022/03/26 10:41:43;;;;;;;16.08;14.40;;;;;;;42.77;9.19;101811.91;5000628;28;20065;-81
2022/03/26 10:44:14;;;;;;;16.60;14.80;;;;;;;42.78;9.23;101807.66;5007279;28;20053;-81
2022/03/26 10:46:47;;;;;;;15.13;13.45;;;;;;;42.42;9.54;101820.63;5012368;28;20399;-81
2022/03/26 10:49:15;;;;;;;15.57;13.50;;;;;;;41.78;9.35;101802.47;5014953;28;20057;-81
2022/03/26 10:51:42;;;;;;;12.52;11.32;;;;;;;42.39;9.49;101805.69;5009707;28;20498;-83
2022/03/26 10:54:12;;;;;;;;;;;;;;;42.06;9.46;101810.97;5015431;28;20052;-83
2022/03/26 10:56:40;;;;;;;13.40;12.00;;;;;;;42.08;9.64;101817.13;5016785;28;19933;-85
2022/03/26 10:59:08;;;;;;;11.35;10.23;;;;;;;42.30;9.62;101811.66;5005362;28;20419;-85
2022/03/26 11:01:35;;;;;;;;;;;;;;;42.13;9.75;101805.53;5002545;28;20528;-82
2022/03/26 11:04:03;;;;;;;9.10;8.27;;;;;;;41.85;9.88;101802.03;5016226;28;19925;-86
2022/03/26 11:06:39;;;;;;;9.52;8.45;;;;;;;42.27;9.53;101797.22;5011956;28;20057;-81
2022/03/26 11:09:08;;;;;;;9.63;8.65;;;;;;;42.12;9.86;101803.91;5013291;28;20037;-83
2022/03/26 11:11:38;;;;;;;10.05;9.05;;;;;;;41.73;10.38;101797.31;5007726;28;20054;-82
2022/03/26 11:14:11;;;;;;;8.05;7.10;;;;;;;41.84;10.35;101800.44;5009512;28;20054;-86
2022/03/26 11:17:03;;;;;;;9.10;8.20;;;;;;;41.95;9.50;101791.06;5008188;28;20062;-85
2022/03/26 11:19:59;;;;;;;8.65;7.72;;;;;;;42.14;9.41;101795.41;5017628;28;20050;-82
2022/03/26 11:22:50;;;;;;;7.38;6.45;;;;;;;41.31;9.56;101792.47;5008072;28;20050;-85
2022/03/26 11:25:40;;;;;;;6.63;5.90;;;;;;;40.98;9.86;101787.47;5019270;28;20052;-82
2022/03/26 11:28:39;;;;;;;6.20;5.60;;;;;;;41.45;10.28;101796.72;5014824;28;20053;-84
2022/03/26 11:31:13;;;;;;;8.23;6.93;;;;;;;41.20;9.52;101792.22;4986958;28;20054;-86